sensor_id;sensor_type;location;lat;lon;timestamp;P1;durP1;ratioP1;P2;durP2;ratioP2
54143;SDS011;40050;47.324;18.792;2023-04-29T00:01:16;11.22;;;5.19;;
54143;SDS011;40050;47.324;18.792;2023-04-29T00:03:12;6.40;;;4.39;;
54143;SDS011;40050;47.324;18.792;2023-04-29T00:05:13;8.25;;;4.69;;
54143;SDS011;40050;47.324;18.792;2023-04-29T00:07:14;9.42;;;4.99;;
54143;SDS011;40050;47.324;18.792;2023-04-29T00:09:15;9.71;;;4.99;;
54143;SDS011;40050;47.324;18.792;2023-04-29T00:11:16;6.86;;;5.19;;
54143;SDS011;40050;47.324;18.792;2023-04-29T00:13:17;7.62;;;4.89;;
54143;SDS011;40050;47.324;18.792;2023-04-29T00:15:18;8.59;;;5.39;;
54143;SDS011;40050;47.324;18.792;2023-04-29T00:17:19;8.98;;;5.48;;
54143;SDS011;40050;47.324;18.792;2023-04-29T00:19:20;7.22;;;4.99;;
54143;SDS011;40050;47.324;18.792;2023-04-29T00:21:20;9.74;;;5.58;;
54143;SDS011;40050;47.324;18.792;2023-04-29T00:23:21;9.84;;;5.38;;
54143;SDS011;40050;47.324;18.792;2023-04-29T00:25:22;9.54;;;5.48;;
54143;SDS011;40050;47.324;18.792;2023-04-29T00:27:23;8.27;;;4.98;;
54143;SDS011;40050;47.324;18.792;2023-04-29T00:29:24;8.27;;;5.38;;
54143;SDS011;40050;47.324;18.792;2023-04-29T00:31:25;7.03;;;4.89;;
54143;SDS011;40050;47.324;18.792;2023-04-29T00:33:26;11.04;;;4.89;;
54143;SDS011;40050;47.324;18.792;2023-04-29T00:35:27;9.37;;;5.29;;
54143;SDS011;40050;47.324;18.792;2023-04-29T00:37:28;9.09;;;5.29;;
54143;SDS011;40050;47.324;18.792;2023-04-29T00:39:29;7.81;;;4.79;;
54143;SDS011;40050;47.324;18.792;2023-04-29T00:41:30;7.82;;;5.39;;
54143;SDS011;40050;47.324;18.792;2023-04-29T00:43:31;7.82;;;5.19;;
54143;SDS011;40050;47.324;18.792;2023-04-29T00:45:31;10.76;;;5.19;;
54143;SDS011;40050;47.324;18.792;2023-04-29T00:47:32;10.38;;;5.19;;
54143;SDS011;40050;47.324;18.792;2023-04-29T00:49:33;9.69;;;4.79;;
54143;SDS011;40050;47.324;18.792;2023-04-29T00:51:35;8.62;;;4.99;;
54143;SDS011;40050;47.324;18.792;2023-04-29T00:53:37;9.98;;;4.99;;
54143;SDS011;40050;47.324;18.792;2023-04-29T00:55:38;10.27;;;4.89;;
54143;SDS011;40050;47.324;18.792;2023-04-29T00:57:39;9.10;;;4.79;;
54143;SDS011;40050;47.324;18.792;2023-04-29T00:59:40;8.01;;;5.09;;
54143;SDS011;40050;47.324;18.792;2023-04-29T01:01:42;8.89;;;5.19;;
54143;SDS011;40050;47.324;18.792;2023-04-29T01:03:43;8.50;;;5.09;;
54143;SDS011;40050;47.324;18.792;2023-04-29T01:05:44;9.27;;;4.99;;
54143;SDS011;40050;47.324;18.792;2023-04-29T01:10:17;9.06;;;5.08;;
54143;SDS011;40050;47.324;18.792;2023-04-29T01:12:49;7.89;;;5.18;;
54143;SDS011;40050;47.324;18.792;2023-04-29T01:14:32;10.33;;;5.08;;
54143;SDS011;40050;47.324;18.792;2023-04-29T01:16:40;12.29;;;5.38;;
54143;SDS011;40050;47.324;18.792;2023-04-29T01:18:41;8.21;;;4.89;;
54143;SDS011;40050;47.324;18.792;2023-04-29T01:20:42;9.01;;;5.19;;
54143;SDS011;40050;47.324;18.792;2023-04-29T01:22:43;8.92;;;4.89;;
54143;SDS011;40050;47.324;18.792;2023-04-29T01:24:43;7.55;;;5.09;;
54143;SDS011;40050;47.324;18.792;2023-04-29T01:26:47;7.94;;;4.99;;
54143;SDS011;40050;47.324;18.792;2023-04-29T01:33:47;10.00;;;5.29;;
54143;SDS011;40050;47.324;18.792;2023-04-29T01:35:49;10.00;;;4.89;;
54143;SDS011;40050;47.324;18.792;2023-04-29T01:38:08;8.82;;;4.99;;
54143;SDS011;40050;47.324;18.792;2023-04-29T01:42:21;8.83;;;4.49;;
54143;SDS011;40050;47.324;18.792;2023-04-29T01:44:21;9.82;;;4.79;;
54143;SDS011;40050;47.324;18.792;2023-04-29T01:46:22;8.06;;;4.69;;
54143;SDS011;40050;47.324;18.792;2023-04-29T01:48:23;9.04;;;5.09;;
54143;SDS011;40050;47.324;18.792;2023-04-29T01:50:25;7.58;;;4.59;;
54143;SDS011;40050;47.324;18.792;2023-04-29T01:52:25;8.76;;;4.89;;
54143;SDS011;40050;47.324;18.792;2023-04-29T01:54:26;10.63;;;5.09;;
54143;SDS011;40050;47.324;18.792;2023-04-29T01:56:27;9.64;;;4.69;;
54143;SDS011;40050;47.324;18.792;2023-04-29T01:58:28;11.61;;;4.79;;
54143;SDS011;40050;47.324;18.792;2023-04-29T02:00:29;9.25;;;4.59;;
54143;SDS011;40050;47.324;18.792;2023-04-29T02:02:30;9.35;;;5.09;;
54143;SDS011;40050;47.324;18.792;2023-04-29T02:04:31;9.75;;;4.89;;
54143;SDS011;40050;47.324;18.792;2023-04-29T02:06:32;6.89;;;4.59;;
54143;SDS011;40050;47.324;18.792;2023-04-29T02:08:33;7.58;;;4.59;;
54143;SDS011;40050;47.324;18.792;2023-04-29T02:10:34;9.84;;;4.79;;
54143;SDS011;40050;47.324;18.792;2023-04-29T02:12:35;8.86;;;4.49;;
54143;SDS011;40050;47.324;18.792;2023-04-29T02:14:36;7.88;;;4.59;;
54143;SDS011;40050;47.324;18.792;2023-04-29T02:16:44;10.24;;;4.59;;
54143;SDS011;40050;47.324;18.792;2023-04-29T02:18:42;12.12;;;5.69;;
54143;SDS011;40050;47.324;18.792;2023-04-29T02:20:43;6.61;;;4.49;;
54143;SDS011;40050;47.324;18.792;2023-04-29T02:22:44;9.56;;;4.39;;
54143;SDS011;40050;47.324;18.792;2023-04-29T02:24:45;7.79;;;4.29;;
54143;SDS011;40050;47.324;18.792;2023-04-29T02:26:45;7.98;;;4.79;;
54143;SDS011;40050;47.324;18.792;2023-04-29T02:28:46;8.28;;;4.69;;
54143;SDS011;40050;47.324;18.792;2023-04-29T02:30:47;6.90;;;4.19;;
54143;SDS011;40050;47.324;18.792;2023-04-29T02:32:48;10.24;;;4.69;;
54143;SDS011;40050;47.324;18.792;2023-04-29T02:34:49;7.88;;;4.59;;
54143;SDS011;40050;47.324;18.792;2023-04-29T02:36:50;7.19;;;4.79;;
54143;SDS011;40050;47.324;18.792;2023-04-29T02:38:51;11.72;;;5.39;;
54143;SDS011;40050;47.324;18.792;2023-04-29T02:40:52;7.98;;;5.09;;
54143;SDS011;40050;47.324;18.792;2023-04-29T02:42:52;8.76;;;4.79;;
54143;SDS011;40050;47.324;18.792;2023-04-29T02:44:53;8.57;;;4.79;;
54143;SDS011;40050;47.324;18.792;2023-04-29T02:46:54;9.75;;;5.19;;
54143;SDS011;40050;47.324;18.792;2023-04-29T02:48:55;8.97;;;4.89;;
54143;SDS011;40050;47.324;18.792;2023-04-29T02:50:56;8.97;;;5.09;;
54143;SDS011;40050;47.324;18.792;2023-04-29T02:52:57;8.68;;;4.69;;
54143;SDS011;40050;47.324;18.792;2023-04-29T02:54:58;9.46;;;4.89;;
54143;SDS011;40050;47.324;18.792;2023-04-29T02:56:59;9.66;;;4.89;;
54143;SDS011;40050;47.324;18.792;2023-04-29T02:59:00;8.37;;;4.49;;
54143;SDS011;40050;47.324;18.792;2023-04-29T03:01:01;7.88;;;4.69;;
54143;SDS011;40050;47.324;18.792;2023-04-29T03:03:01;8.57;;;4.79;;
54143;SDS011;40050;47.324;18.792;2023-04-29T03:05:03;9.55;;;4.59;;
54143;SDS011;40050;47.324;18.792;2023-04-29T03:07:03;10.14;;;4.89;;
54143;SDS011;40050;47.324;18.792;2023-04-29T03:09:04;10.24;;;4.99;;
54143;SDS011;40050;47.324;18.792;2023-04-29T03:11:05;8.95;;;4.59;;
54143;SDS011;40050;47.324;18.792;2023-04-29T03:13:06;10.13;;;5.29;;
54143;SDS011;40050;47.324;18.792;2023-04-29T03:15:07;10.03;;;4.19;;
54143;SDS011;40050;47.324;18.792;2023-04-29T03:17:08;9.15;;;5.19;;
54143;SDS011;40050;47.324;18.792;2023-04-29T03:19:09;11.89;;;4.89;;
54143;SDS011;40050;47.324;18.792;2023-04-29T03:21:10;15.83;;;5.49;;
54143;SDS011;40050;47.324;18.792;2023-04-29T03:23:11;9.83;;;5.39;;
54143;SDS011;40050;47.324;18.792;2023-04-29T03:25:12;13.46;;;4.79;;
54143;SDS011;40050;47.324;18.792;2023-04-29T03:27:12;7.37;;;4.89;;
54143;SDS011;40050;47.324;18.792;2023-04-29T03:29:13;8.75;;;4.79;;
54143;SDS011;40050;47.324;18.792;2023-04-29T03:31:14;7.56;;;4.29;;
54143;SDS011;40050;47.324;18.792;2023-04-29T03:33:15;7.86;;;4.69;;
54143;SDS011;40050;47.324;18.792;2023-04-29T03:35:16;7.76;;;4.39;;
54143;SDS011;40050;47.324;18.792;2023-04-29T03:37:17;6.78;;;4.69;;
54143;SDS011;40050;47.324;18.792;2023-04-29T03:39:18;9.63;;;4.79;;
54143;SDS011;40050;47.324;18.792;2023-04-29T03:41:19;8.35;;;4.69;;
54143;SDS011;40050;47.324;18.792;2023-04-29T03:43:20;8.46;;;4.39;;
54143;SDS011;40050;47.324;18.792;2023-04-29T03:45:21;8.66;;;5.09;;
54143;SDS011;40050;47.324;18.792;2023-04-29T03:47:22;8.95;;;4.49;;
54143;SDS011;40050;47.324;18.792;2023-04-29T03:49:22;7.08;;;4.59;;
54143;SDS011;40050;47.324;18.792;2023-04-29T03:51:24;9.25;;;4.69;;
54143;SDS011;40050;47.324;18.792;2023-04-29T03:53:24;10.43;;;4.29;;
54143;SDS011;40050;47.324;18.792;2023-04-29T03:55:25;7.28;;;4.49;;
54143;SDS011;40050;47.324;18.792;2023-04-29T03:57:26;10.04;;;4.09;;
54143;SDS011;40050;47.324;18.792;2023-04-29T03:59:27;8.86;;;4.39;;
54143;SDS011;40050;47.324;18.792;2023-04-29T04:01:28;9.75;;;4.39;;
54143;SDS011;40050;47.324;18.792;2023-04-29T04:03:29;7.29;;;3.69;;
54143;SDS011;40050;47.324;18.792;2023-04-29T04:05:30;8.37;;;4.49;;
54143;SDS011;40050;47.324;18.792;2023-04-29T04:07:31;7.78;;;4.29;;
54143;SDS011;40050;47.324;18.792;2023-04-29T04:09:32;6.99;;;4.39;;
54143;SDS011;40050;47.324;18.792;2023-04-29T04:11:33;9.85;;;4.39;;
54143;SDS011;40050;47.324;18.792;2023-04-29T04:13:34;7.29;;;4.29;;
54143;SDS011;40050;47.324;18.792;2023-04-29T04:15:35;8.17;;;4.59;;
54143;SDS011;40050;47.324;18.792;2023-04-29T04:17:36;7.19;;;4.29;;
54143;SDS011;40050;47.324;18.792;2023-04-29T04:19:37;11.32;;;4.69;;
54143;SDS011;40050;47.324;18.792;2023-04-29T04:21:38;7.68;;;4.29;;
54143;SDS011;40050;47.324;18.792;2023-04-29T04:23:39;10.92;;;4.49;;
54143;SDS011;40050;47.324;18.792;2023-04-29T04:25:47;8.56;;;4.19;;
54143;SDS011;40050;47.324;18.792;2023-04-29T04:27:41;9.55;;;4.39;;
54143;SDS011;40050;47.324;18.792;2023-04-29T04:29:42;8.46;;;4.39;;
54143;SDS011;40050;47.324;18.792;2023-04-29T04:31:43;5.71;;;3.69;;
54143;SDS011;40050;47.324;18.792;2023-04-29T04:33:44;6.49;;;3.99;;
54143;SDS011;40050;47.324;18.792;2023-04-29T04:35:45;6.20;;;3.99;;
54143;SDS011;40050;47.324;18.792;2023-04-29T04:37:46;7.37;;;4.19;;
54143;SDS011;40050;47.324;18.792;2023-04-29T04:39:47;7.37;;;3.89;;
54143;SDS011;40050;47.324;18.792;2023-04-29T04:41:48;7.85;;;4.39;;
54143;SDS011;40050;47.324;18.792;2023-04-29T04:43:49;10.01;;;4.19;;
54143;SDS011;40050;47.324;18.792;2023-04-29T04:45:49;6.67;;;4.19;;
54143;SDS011;40050;47.324;18.792;2023-04-29T04:47:50;9.03;;;4.09;;
54143;SDS011;40050;47.324;18.792;2023-04-29T04:49:53;7.75;;;3.99;;
54143;SDS011;40050;47.324;18.792;2023-04-29T04:51:54;8.05;;;4.59;;
54143;SDS011;40050;47.324;18.792;2023-04-29T04:53:55;7.77;;;4.69;;
54143;SDS011;40050;47.324;18.792;2023-04-29T04:55:59;8.07;;;4.39;;
54143;SDS011;40050;47.324;18.792;2023-04-29T04:57:56;7.28;;;4.39;;
54143;SDS011;40050;47.324;18.792;2023-04-29T04:59:57;9.94;;;4.59;;
54143;SDS011;40050;47.324;18.792;2023-04-29T05:01:58;7.58;;;4.69;;
54143;SDS011;40050;47.324;18.792;2023-04-29T05:03:59;8.07;;;4.29;;
54143;SDS011;40050;47.324;18.792;2023-04-29T05:06:00;8.36;;;4.69;;
54143;SDS011;40050;47.324;18.792;2023-04-29T05:08:01;9.15;;;4.79;;
54143;SDS011;40050;47.324;18.792;2023-04-29T05:10:03;9.15;;;4.49;;
54143;SDS011;40050;47.324;18.792;2023-04-29T05:12:03;8.65;;;4.39;;
54143;SDS011;40050;47.324;18.792;2023-04-29T05:14:04;7.96;;;5.19;;
54143;SDS011;40050;47.324;18.792;2023-04-29T05:16:05;9.43;;;4.99;;
54143;SDS011;40050;47.324;18.792;2023-04-29T05:18:06;9.52;;;4.59;;
54143;SDS011;40050;47.324;18.792;2023-04-29T05:20:07;8.14;;;4.89;;
54143;SDS011;40050;47.324;18.792;2023-04-29T05:22:08;10.20;;;5.39;;
54143;SDS011;40050;47.324;18.792;2023-04-29T05:24:09;8.43;;;5.09;;
54143;SDS011;40050;47.324;18.792;2023-04-29T05:26:10;9.21;;;5.09;;
54143;SDS011;40050;47.324;18.792;2023-04-29T05:28:11;9.01;;;5.39;;
54143;SDS011;40050;47.324;18.792;2023-04-29T05:30:12;11.47;;;5.59;;
54143;SDS011;40050;47.324;18.792;2023-04-29T05:32:13;9.90;;;5.49;;
54143;SDS011;40050;47.324;18.792;2023-04-29T05:34:14;8.72;;;5.29;;
54143;SDS011;40050;47.324;18.792;2023-04-29T05:36:14;7.44;;;5.09;;
54143;SDS011;40050;47.324;18.792;2023-04-29T05:38:16;7.55;;;5.49;;
54143;SDS011;40050;47.324;18.792;2023-04-29T05:40:16;10.30;;;5.79;;
54143;SDS011;40050;47.324;18.792;2023-04-29T05:42:17;9.91;;;5.39;;
54143;SDS011;40050;47.324;18.792;2023-04-29T05:44:18;9.53;;;5.39;;
54143;SDS011;40050;47.324;18.792;2023-04-29T05:46:19;12.67;;;5.89;;
54143;SDS011;40050;47.324;18.792;2023-04-29T05:48:20;8.94;;;5.59;;
54143;SDS011;40050;47.324;18.792;2023-04-29T05:50:21;14.92;;;5.59;;
54143;SDS011;40050;47.324;18.792;2023-04-29T05:52:22;9.43;;;5.29;;
54143;SDS011;40050;47.324;18.792;2023-04-29T05:54:23;9.43;;;5.29;;
54143;SDS011;40050;47.324;18.792;2023-04-29T05:56:24;9.14;;;5.59;;
54143;SDS011;40050;47.324;18.792;2023-04-29T05:58:25;10.80;;;5.79;;
54143;SDS011;40050;47.324;18.792;2023-04-29T06:00:26;10.12;;;5.89;;
54143;SDS011;40050;47.324;18.792;2023-04-29T06:02:27;6.98;;;5.19;;
54143;SDS011;40050;47.324;18.792;2023-04-29T06:04:28;9.44;;;5.29;;
54143;SDS011;40050;47.324;18.792;2023-04-29T06:06:29;10.62;;;6.19;;
54143;SDS011;40050;47.324;18.792;2023-04-29T06:08:30;10.82;;;5.89;;
54143;SDS011;40050;47.324;18.792;2023-04-29T06:10:31;7.09;;;5.09;;
54143;SDS011;40050;47.324;18.792;2023-04-29T06:12:32;8.18;;;5.09;;
54143;SDS011;40050;47.324;18.792;2023-04-29T06:14:33;14.49;;;5.29;;
54143;SDS011;40050;47.324;18.792;2023-04-29T06:16:34;7.98;;;5.29;;
54143;SDS011;40050;47.324;18.792;2023-04-29T06:18:35;7.98;;;5.09;;
54143;SDS011;40050;47.324;18.792;2023-04-29T06:20:36;10.34;;;4.99;;
54143;SDS011;40050;47.324;18.792;2023-04-29T06:22:37;9.56;;;5.59;;
54143;SDS011;40050;47.324;18.792;2023-04-29T06:24:38;9.07;;;4.99;;
54143;SDS011;40050;47.324;18.792;2023-04-29T06:26:39;10.04;;;5.29;;
54143;SDS011;40050;47.324;18.792;2023-04-29T06:28:40;10.82;;;5.59;;
54143;SDS011;40050;47.324;18.792;2023-04-29T06:30:41;11.12;;;6.09;;
54143;SDS011;40050;47.324;18.792;2023-04-29T06:32:42;12.90;;;6.19;;
54143;SDS011;40050;47.324;18.792;2023-04-29T06:34:43;10.05;;;6.09;;
54143;SDS011;40050;47.324;18.792;2023-04-29T06:36:44;16.45;;;7.19;;
54143;SDS011;40050;47.324;18.792;2023-04-29T06:38:45;11.04;;;5.89;;
54143;SDS011;40050;47.324;18.792;2023-04-29T06:40:46;8.87;;;5.89;;
54143;SDS011;40050;47.324;18.792;2023-04-29T06:42:46;9.76;;;5.39;;
54143;SDS011;40050;47.324;18.792;2023-04-29T06:44:48;10.74;;;5.59;;
54143;SDS011;40050;47.324;18.792;2023-04-29T06:46:49;11.42;;;5.69;;
54143;SDS011;40050;47.324;18.792;2023-04-29T06:48:49;7.97;;;5.89;;
54143;SDS011;40050;47.324;18.792;2023-04-29T06:50:51;14.98;;;6.29;;
54143;SDS011;40050;47.324;18.792;2023-04-29T06:52:51;14.38;;;6.49;;
54143;SDS011;40050;47.324;18.792;2023-04-29T06:54:52;10.35;;;5.79;;
54143;SDS011;40050;47.324;18.792;2023-04-29T06:56:53;11.63;;;5.49;;
54143;SDS011;40050;47.324;18.792;2023-04-29T06:58:54;10.74;;;5.69;;
54143;SDS011;40050;47.324;18.792;2023-04-29T07:00:55;11.73;;;5.79;;
54143;SDS011;40050;47.324;18.792;2023-04-29T07:02:56;11.93;;;5.19;;
54143;SDS011;40050;47.324;18.792;2023-04-29T07:04:57;9.26;;;5.89;;
54143;SDS011;40050;47.324;18.792;2023-04-29T07:06:58;7.00;;;5.39;;
54143;SDS011;40050;47.324;18.792;2023-04-29T07:08:59;10.06;;;5.79;;
54143;SDS011;40050;47.324;18.792;2023-04-29T07:11:00;10.94;;;5.99;;
54143;SDS011;40050;47.324;18.792;2023-04-29T07:13:00;10.15;;;5.79;;
54143;SDS011;40050;47.324;18.792;2023-04-29T07:15:01;8.87;;;5.89;;
54143;SDS011;40050;47.324;18.792;2023-04-29T07:17:02;15.57;;;5.59;;
54143;SDS011;40050;47.324;18.792;2023-04-29T07:19:03;7.98;;;5.49;;
54143;SDS011;40050;47.324;18.792;2023-04-29T07:21:06;11.92;;;5.09;;
54143;SDS011;40050;47.324;18.792;2023-04-29T07:23:07;10.65;;;5.69;;
54143;SDS011;40050;47.324;18.792;2023-04-29T07:25:08;9.68;;;5.39;;
54143;SDS011;40050;47.324;18.792;2023-04-29T07:27:09;9.77;;;5.59;;
54143;SDS011;40050;47.324;18.792;2023-04-29T07:29:10;9.18;;;5.39;;
54143;SDS011;40050;47.324;18.792;2023-04-29T07:31:11;11.07;;;5.09;;
54143;SDS011;40050;47.324;18.792;2023-04-29T07:33:12;8.80;;;5.20;;
54143;SDS011;40050;47.324;18.792;2023-04-29T07:35:13;10.78;;;5.10;;
54143;SDS011;40050;47.324;18.792;2023-04-29T07:37:14;10.19;;;5.40;;
54143;SDS011;40050;47.324;18.792;2023-04-29T07:39:15;10.39;;;5.40;;
54143;SDS011;40050;47.324;18.792;2023-04-29T07:41:16;11.48;;;5.40;;
54143;SDS011;40050;47.324;18.792;2023-04-29T07:43:17;12.47;;;5.20;;
54143;SDS011;40050;47.324;18.792;2023-04-29T07:45:17;10.70;;;5.70;;
54143;SDS011;40050;47.324;18.792;2023-04-29T07:47:18;10.09;;;5.60;;
54143;SDS011;40050;47.324;18.792;2023-04-29T07:49:19;8.82;;;5.40;;
54143;SDS011;40050;47.324;18.792;2023-04-29T07:51:20;9.02;;;5.00;;
54143;SDS011;40050;47.324;18.792;2023-04-29T07:53:24;11.39;;;5.50;;
54143;SDS011;40050;47.324;18.792;2023-04-29T07:55:35;11.89;;;5.20;;
54143;SDS011;40050;47.324;18.792;2023-04-29T07:57:36;8.52;;;5.30;;
54143;SDS011;40050;47.324;18.792;2023-04-29T07:59:37;7.63;;;5.40;;
54143;SDS011;40050;47.324;18.792;2023-04-29T08:01:41;11.31;;;5.20;;
54143;SDS011;40050;47.324;18.792;2023-04-29T08:03:40;11.11;;;5.10;;
54143;SDS011;40050;47.324;18.792;2023-04-29T08:05:41;12.21;;;6.30;;
54143;SDS011;40050;47.324;18.792;2023-04-29T08:07:42;9.93;;;5.70;;
54143;SDS011;40050;47.324;18.792;2023-04-29T08:09:43;10.52;;;5.00;;
54143;SDS011;40050;47.324;18.792;2023-04-29T08:11:47;8.54;;;5.20;;
54143;SDS011;40050;47.324;18.792;2023-04-29T08:13:48;8.44;;;5.10;;
54143;SDS011;40050;47.324;18.792;2023-04-29T08:15:49;9.73;;;5.60;;
54143;SDS011;40050;47.324;18.792;2023-04-29T08:17:50;9.64;;;5.40;;
54143;SDS011;40050;47.324;18.792;2023-04-29T08:19:51;8.35;;;5.20;;
54143;SDS011;40050;47.324;18.792;2023-04-29T08:21:58;9.74;;;5.20;;
54143;SDS011;40050;47.324;18.792;2023-04-29T08:23:56;8.85;;;5.70;;
54143;SDS011;40050;47.324;18.792;2023-04-29T08:25:57;9.84;;;5.30;;
54143;SDS011;40050;47.324;18.792;2023-04-29T08:27:58;7.35;;;5.10;;
54143;SDS011;40050;47.324;18.792;2023-04-29T08:30:01;9.64;;;5.10;;
54143;SDS011;40050;47.324;18.792;2023-04-29T08:32:02;9.74;;;5.20;;
54143;SDS011;40050;47.324;18.792;2023-04-29T08:34:03;7.85;;;5.40;;
54143;SDS011;40050;47.324;18.792;2023-04-29T08:36:04;9.25;;;4.90;;
54143;SDS011;40050;47.324;18.792;2023-04-29T08:38:05;7.17;;;4.70;;
54143;SDS011;40050;47.324;18.792;2023-04-29T08:40:07;9.25;;;5.40;;
54143;SDS011;40050;47.324;18.792;2023-04-29T08:42:10;9.75;;;5.30;;
54143;SDS011;40050;47.324;18.792;2023-04-29T08:44:08;10.15;;;5.20;;
54143;SDS011;40050;47.324;18.792;2023-04-29T08:46:09;10.65;;;5.60;;
54143;SDS011;40050;47.324;18.792;2023-04-29T08:48:10;7.47;;;5.30;;
54143;SDS011;40050;47.324;18.792;2023-04-29T08:50:11;7.87;;;5.30;;
54143;SDS011;40050;47.324;18.792;2023-04-29T08:52:12;10.55;;;5.50;;
54143;SDS011;40050;47.324;18.792;2023-04-29T08:54:13;8.46;;;4.90;;
54143;SDS011;40050;47.324;18.792;2023-04-29T08:56:16;7.47;;;4.60;;
54143;SDS011;40050;47.324;18.792;2023-04-29T08:58:19;7.17;;;4.60;;
54143;SDS011;40050;47.324;18.792;2023-04-29T09:00:20;9.16;;;5.20;;
54143;SDS011;40050;47.324;18.792;2023-04-29T09:02:24;10.35;;;5.40;;
54143;SDS011;40050;47.324;18.792;2023-04-29T09:06:41;10.06;;;5.10;;
54143;SDS011;40050;47.324;18.792;2023-04-29T09:08:42;7.76;;;4.40;;
54143;SDS011;40050;47.324;18.792;2023-04-29T09:10:43;10.36;;;4.50;;
54143;SDS011;40050;47.324;18.792;2023-04-29T09:12:44;7.47;;;4.80;;
54143;SDS011;40050;47.324;18.792;2023-04-29T09:14:45;8.56;;;4.70;;
54143;SDS011;40050;47.324;18.792;2023-04-29T09:16:46;5.97;;;4.30;;
54143;SDS011;40050;47.324;18.792;2023-04-29T09:19:12;6.07;;;4.30;;
54143;SDS011;40050;47.324;18.792;2023-04-29T09:21:13;7.87;;;4.40;;
54143;SDS011;40050;47.324;18.792;2023-04-29T09:23:37;9.56;;;4.90;;
54143;SDS011;40050;47.324;18.792;2023-04-29T09:25:54;7.07;;;4.30;;
54143;SDS011;40050;47.324;18.792;2023-04-29T09:27:56;8.77;;;4.30;;
54143;SDS011;40050;47.324;18.792;2023-04-29T09:30:00;7.27;;;4.50;;
54143;SDS011;40050;47.324;18.792;2023-04-29T09:31:58;6.68;;;4.80;;
54143;SDS011;40050;47.324;18.792;2023-04-29T09:34:31;10.17;;;5.20;;
54143;SDS011;40050;47.324;18.792;2023-04-29T09:38:52;10.07;;;5.00;;
54143;SDS011;40050;47.324;18.792;2023-04-29T09:40:59;9.37;;;4.60;;
54143;SDS011;40050;47.324;18.792;2023-04-29T09:43:00;7.08;;;4.30;;
54143;SDS011;40050;47.324;18.792;2023-04-29T09:45:03;5.38;;;3.90;;
54143;SDS011;40050;47.324;18.792;2023-04-29T09:47:05;8.67;;;4.50;;
54143;SDS011;40050;47.324;18.792;2023-04-29T09:49:20;13.26;;;5.00;;
54143;SDS011;40050;47.324;18.792;2023-04-29T09:51:06;9.87;;;5.00;;
54143;SDS011;40050;47.324;18.792;2023-04-29T09:53:11;9.68;;;4.90;;
54143;SDS011;40050;47.324;18.792;2023-04-29T09:55:12;7.28;;;4.80;;
54143;SDS011;40050;47.324;18.792;2023-04-29T09:57:18;7.58;;;4.90;;
54143;SDS011;40050;47.324;18.792;2023-04-29T09:59:19;10.17;;;5.50;;
54143;SDS011;40050;47.324;18.792;2023-04-29T10:01:20;8.38;;;4.70;;
54143;SDS011;40050;47.324;18.792;2023-04-29T10:03:24;9.47;;;4.60;;
54143;SDS011;40050;47.324;18.792;2023-04-29T10:05:26;7.38;;;4.90;;
54143;SDS011;40050;47.324;18.792;2023-04-29T10:07:26;10.07;;;6.10;;
54143;SDS011;40050;47.324;18.792;2023-04-29T10:09:27;12.86;;;6.30;;
54143;SDS011;40050;47.324;18.792;2023-04-29T10:11:30;9.77;;;6.20;;
54143;SDS011;40050;47.324;18.792;2023-04-29T10:13:33;8.77;;;6.00;;
54143;SDS011;40050;47.324;18.792;2023-04-29T10:15:57;7.98;;;4.90;;
54143;SDS011;40050;47.324;18.792;2023-04-29T10:17:58;7.38;;;4.80;;
54143;SDS011;40050;47.324;18.792;2023-04-29T10:20:05;10.27;;;5.20;;
54143;SDS011;40050;47.324;18.792;2023-04-29T10:22:11;9.27;;;5.00;;
54143;SDS011;40050;47.324;18.792;2023-04-29T10:24:07;7.48;;;5.30;;
54143;SDS011;40050;47.324;18.792;2023-04-29T10:26:10;10.77;;;5.80;;
54143;SDS011;40050;47.324;18.792;2023-04-29T10:28:13;10.67;;;5.80;;
54143;SDS011;40050;47.324;18.792;2023-04-29T10:30:15;9.17;;;5.80;;
54143;SDS011;40050;47.324;18.792;2023-04-29T10:32:16;8.78;;;5.70;;
54143;SDS011;40050;47.324;18.792;2023-04-29T10:34:17;8.97;;;5.40;;
54143;SDS011;40050;47.324;18.792;2023-04-29T10:36:19;8.17;;;4.80;;
54143;SDS011;40050;47.324;18.792;2023-04-29T10:38:23;8.07;;;5.30;;
54143;SDS011;40050;47.324;18.792;2023-04-29T10:40:45;9.27;;;5.40;;
54143;SDS011;40050;47.324;18.792;2023-04-29T10:42:51;9.67;;;5.10;;
54143;SDS011;40050;47.324;18.792;2023-04-29T10:47:17;8.97;;;4.80;;
54143;SDS011;40050;47.324;18.792;2023-04-29T10:49:00;10.07;;;4.80;;
54143;SDS011;40050;47.324;18.792;2023-04-29T10:50:58;8.57;;;4.90;;
54143;SDS011;40050;47.324;18.792;2023-04-29T10:53:02;7.78;;;5.20;;
54143;SDS011;40050;47.324;18.792;2023-04-29T10:55:02;8.97;;;5.40;;
54143;SDS011;40050;47.324;18.792;2023-04-29T10:57:07;9.07;;;5.10;;
54143;SDS011;40050;47.324;18.792;2023-04-29T10:59:22;8.57;;;5.00;;
54143;SDS011;40050;47.324;18.792;2023-04-29T11:01:17;7.68;;;4.70;;
54143;SDS011;40050;47.324;18.792;2023-04-29T11:05:40;10.27;;;4.80;;
54143;SDS011;40050;47.324;18.792;2023-04-29T11:08:07;10.57;;;4.80;;
54143;SDS011;40050;47.324;18.792;2023-04-29T11:09:58;9.87;;;4.60;;
54143;SDS011;40050;47.324;18.792;2023-04-29T11:12:18;7.48;;;4.70;;
54143;SDS011;40050;47.324;18.792;2023-04-29T11:14:20;8.18;;;4.60;;
54143;SDS011;40050;47.324;18.792;2023-04-29T11:16:19;7.28;;;4.70;;
54143;SDS011;40050;47.324;18.792;2023-04-29T11:18:18;9.27;;;5.40;;
54143;SDS011;40050;47.324;18.792;2023-04-29T11:20:22;10.18;;;5.40;;
54143;SDS011;40050;47.324;18.792;2023-04-29T11:22:49;9.18;;;4.80;;
54143;SDS011;40050;47.324;18.792;2023-04-29T11:24:55;6.48;;;4.60;;
54143;SDS011;40050;47.324;18.792;2023-04-29T11:26:49;9.28;;;5.10;;
54143;SDS011;40050;47.324;18.792;2023-04-29T11:28:54;6.68;;;4.70;;
54143;SDS011;40050;47.324;18.792;2023-04-29T11:30:52;7.48;;;4.40;;
54143;SDS011;40050;47.324;18.792;2023-04-29T11:32:53;9.08;;;4.50;;
54143;SDS011;40050;47.324;18.792;2023-04-29T11:34:56;8.28;;;5.00;;
54143;SDS011;40050;47.324;18.792;2023-04-29T11:36:56;9.47;;;5.70;;
54143;SDS011;40050;47.324;18.792;2023-04-29T11:39:01;10.07;;;4.70;;
54143;SDS011;40050;47.324;18.792;2023-04-29T11:41:02;6.28;;;4.50;;
54143;SDS011;40050;47.324;18.792;2023-04-29T11:43:15;7.38;;;4.20;;
54143;SDS011;40050;47.324;18.792;2023-04-29T11:45:11;7.88;;;4.30;;
54143;SDS011;40050;47.324;18.792;2023-04-29T11:47:13;9.07;;;4.70;;
54143;SDS011;40050;47.324;18.792;2023-04-29T11:49:21;7.78;;;4.60;;
54143;SDS011;40050;47.324;18.792;2023-04-29T11:51:19;10.87;;;5.10;;
54143;SDS011;40050;47.324;18.792;2023-04-29T11:53:21;7.88;;;4.50;;
54143;SDS011;40050;47.324;18.792;2023-04-29T11:55:21;9.98;;;5.50;;
54143;SDS011;40050;47.324;18.792;2023-04-29T11:57:26;10.17;;;5.20;;
54143;SDS011;40050;47.324;18.792;2023-04-29T11:59:27;9.07;;;5.10;;
54143;SDS011;40050;47.324;18.792;2023-04-29T12:01:32;8.48;;;4.80;;
54143;SDS011;40050;47.324;18.792;2023-04-29T12:03:38;8.38;;;5.20;;
54143;SDS011;40050;47.324;18.792;2023-04-29T12:05:39;6.69;;;4.90;;
54143;SDS011;40050;47.324;18.792;2023-04-29T12:07:40;7.98;;;5.30;;
54143;SDS011;40050;47.324;18.792;2023-04-29T12:09:41;15.27;;;5.80;;
54143;SDS011;40050;47.324;18.792;2023-04-29T12:11:43;10.08;;;5.40;;
54143;SDS011;40050;47.324;18.792;2023-04-29T12:13:45;8.68;;;5.40;;
54143;SDS011;40050;47.324;18.792;2023-04-29T12:15:47;7.78;;;5.60;;
54143;SDS011;40050;47.324;18.792;2023-04-29T12:17:45;9.38;;;5.30;;
54143;SDS011;40050;47.324;18.792;2023-04-29T12:19:46;8.38;;;5.90;;